createdAt,value
2022-11-09T00:00:19.854Z,38.30
2022-11-09T00:01:21.818Z,37.20
2022-11-09T00:02:23.549Z,38.78
2022-11-09T00:03:25.354Z,38.33
2022-11-09T00:04:27.634Z,39.90
2022-11-09T00:05:29.279Z,28.56
2022-11-09T00:06:32.477Z,37.11
2022-11-09T00:07:34.307Z,37.00
2022-11-09T00:08:37.516Z,33.78
2022-11-09T00:09:39.961Z,36.80
2022-11-09T00:10:42.033Z,34.80
2022-11-09T00:11:43.786Z,39.78
2022-11-09T00:12:45.424Z,37.22
2022-11-09T00:13:47.865Z,36.56
2022-11-09T00:14:49.690Z,38.60
2022-11-09T00:15:51.897Z,35.44
2022-11-09T00:16:53.702Z,35.70
2022-11-09T00:17:55.875Z,32.78
2022-11-09T00:18:58.283Z,35.10
2022-11-09T00:20:00.203Z,20.00
2022-11-09T00:21:09.358Z,34.80
2022-11-09T00:22:12.267Z,33.30
2022-11-09T00:23:14.619Z,32.30
2022-11-09T00:24:16.543Z,33.90
2022-11-09T00:25:19.009Z,32.40
2022-11-09T00:26:21.894Z,32.27
2022-11-09T00:27:23.709Z,35.40
2022-11-09T00:28:26.431Z,34.67
2022-11-09T00:29:29.363Z,32.10
2022-11-09T00:30:31.185Z,34.67
2022-11-09T00:31:33.138Z,36.00
2022-11-09T00:32:35.797Z,34.11
2022-11-09T00:33:38.567Z,33.90
2022-11-09T00:34:40.301Z,34.89
2022-11-09T00:35:41.966Z,34.33
2022-11-09T00:36:43.824Z,32.78
2022-11-09T00:37:45.663Z,28.22
2022-11-09T00:38:50.268Z,33.67
2022-11-09T00:39:52.025Z,30.20
2022-11-09T00:40:58.941Z,33.91
2022-11-09T00:42:00.823Z,36.10
2022-11-09T00:43:04.583Z,32.00
2022-11-09T00:44:06.412Z,34.22
2022-11-09T00:45:10.068Z,33.00
2022-11-09T00:46:13.319Z,31.30
2022-11-09T00:47:17.650Z,33.90
2022-11-09T00:48:20.335Z,34.20
2022-11-09T00:49:22.064Z,33.50
2022-11-09T00:50:23.902Z,33.33
2022-11-09T00:51:26.419Z,35.11
2022-11-09T00:52:28.307Z,35.30
2022-11-09T00:53:31.141Z,34.44
2022-11-09T00:54:35.478Z,29.36
2022-11-09T00:55:37.421Z,33.90
2022-11-09T00:56:39.545Z,33.10
2022-11-09T00:57:42.386Z,32.10
2022-11-09T00:58:44.781Z,34.30
2022-11-09T00:59:46.511Z,37.22
2022-11-09T01:00:48.681Z,32.56
2022-11-09T01:01:50.574Z,32.90
2022-11-09T01:02:53.410Z,33.80
2022-11-09T01:03:55.268Z,32.11
2022-11-09T01:04:57.636Z,31.22
2022-11-09T01:06:00.887Z,33.80
2022-11-09T01:07:02.912Z,34.22
2022-11-09T01:08:05.974Z,34.00
2022-11-09T01:09:07.995Z,33.10
2022-11-09T01:10:12.507Z,33.90
2022-11-09T01:11:16.410Z,34.33
2022-11-09T01:12:18.266Z,33.70
2022-11-09T01:13:20.422Z,28.89
2022-11-09T01:14:23.337Z,29.20
2022-11-09T01:15:27.808Z,34.20
2022-11-09T01:16:31.037Z,33.30
2022-11-09T01:17:33.395Z,25.56
2022-11-09T01:18:36.221Z,35.30
2022-11-09T01:19:38.076Z,34.82
2022-11-09T01:20:45.441Z,33.56
2022-11-09T01:21:47.176Z,31.00
2022-11-09T01:22:49.139Z,31.22
2022-11-09T01:23:50.998Z,32.56
2022-11-09T01:24:53.822Z,33.80
2022-11-09T01:26:05.280Z,27.33
2022-11-09T01:27:07.162Z,32.40
2022-11-09T01:28:10.967Z,24.33
2022-11-09T01:29:13.293Z,35.10
2022-11-09T01:30:16.211Z,32.90
2022-11-09T01:31:20.489Z,25.30
2022-11-09T01:32:22.549Z,34.60
2022-11-09T01:33:24.219Z,34.89
2022-11-09T01:34:29.228Z,33.67
2022-11-09T01:35:36.153Z,34.40
2022-11-09T01:36:38.035Z,25.60
2022-11-09T01:37:39.694Z,34.56
2022-11-09T01:38:45.036Z,32.70
2022-11-09T01:39:46.808Z,33.70
2022-11-09T01:40:48.683Z,35.00
2022-11-09T01:41:50.548Z,33.44
2022-11-09T01:42:52.400Z,33.11
2022-11-09T01:44:09.551Z,34.67
2022-11-09T01:45:20.080Z,29.70
2022-11-09T01:46:25.970Z,34.80
2022-11-09T01:47:28.360Z,31.40
2022-11-09T01:48:39.908Z,32.40
2022-11-09T01:51:11.445Z,31.10
2022-11-09T01:52:32.319Z,34.10
2022-11-09T01:53:40.019Z,32.60
2022-11-09T01:54:46.635Z,34.90
2022-11-09T01:55:53.767Z,30.70
2022-11-09T01:56:59.909Z,33.00
2022-11-09T01:58:06.395Z,34.40
2022-11-09T01:59:12.172Z,33.80
2022-11-09T02:00:16.213Z,34.10
2022-11-09T02:01:18.746Z,32.10
2022-11-09T02:02:21.351Z,36.30
2022-11-09T02:03:33.494Z,35.50
2022-11-09T02:04:38.986Z,31.20
2022-11-09T02:05:42.212Z,31.90
2022-11-09T02:06:46.398Z,33.80
2022-11-09T02:07:49.714Z,35.30
2022-11-09T02:08:55.782Z,34.20
2022-11-09T02:10:09.887Z,32.60
2022-11-09T02:11:15.305Z,33.20
2022-11-09T02:12:20.775Z,34.60
2022-11-09T02:13:26.413Z,31.00
2022-11-09T02:14:31.594Z,29.60
2022-11-09T02:15:35.406Z,34.10
2022-11-09T02:16:41.406Z,32.80
2022-11-09T02:17:45.385Z,33.60
2022-11-09T02:18:51.771Z,31.10
2022-11-09T02:20:00.514Z,33.10
2022-11-09T02:21:04.244Z,32.90
2022-11-09T02:22:06.789Z,31.60
2022-11-09T02:23:08.702Z,31.80
2022-11-09T02:24:12.695Z,22.00
2022-11-09T02:25:16.988Z,34.30
2022-11-09T02:27:32.575Z,28.40
2022-11-09T02:28:38.732Z,30.00
2022-11-09T02:29:44.253Z,32.50
2022-11-09T02:30:51.113Z,36.40
2022-11-09T02:31:58.307Z,36.10
2022-11-09T02:33:00.248Z,34.90
2022-11-09T02:34:05.792Z,30.78
2022-11-09T02:35:09.479Z,33.30
2022-11-09T02:36:12.026Z,34.60
2022-11-09T02:37:29.950Z,34.89
2022-11-09T02:38:33.472Z,31.30
2022-11-09T02:39:37.798Z,34.20
2022-11-09T02:40:43.026Z,33.80
2022-11-09T02:41:51.478Z,32.20
2022-11-09T02:42:54.131Z,34.70
2022-11-09T02:43:56.817Z,30.00
2022-11-09T02:44:59.693Z,33.50
2022-11-09T02:46:02.446Z,36.18
2022-11-09T02:47:05.098Z,30.80
2022-11-09T02:48:06.841Z,36.22
2022-11-09T02:49:10.598Z,32.30
2022-11-09T02:50:13.240Z,35.55
2022-11-09T02:51:14.878Z,35.44
2022-11-09T02:52:19.390Z,35.30
2022-11-09T02:53:21.591Z,35.30
2022-11-09T02:54:23.808Z,31.10
2022-11-09T02:55:27.019Z,35.50
2022-11-09T02:56:29.255Z,33.30
2022-11-09T02:57:31.195Z,30.89
2022-11-09T02:58:33.594Z,32.30
2022-11-09T02:59:36.281Z,32.30
2022-11-09T03:00:38.347Z,35.10
2022-11-09T03:01:40.361Z,34.33
2022-11-09T03:02:42.383Z,31.56
2022-11-09T03:03:44.013Z,27.67
2022-11-09T03:04:47.609Z,33.50
2022-11-09T03:05:49.512Z,30.00
2022-11-09T03:06:51.835Z,33.50
2022-11-09T03:07:54.126Z,33.20
2022-11-09T03:08:56.643Z,32.20
2022-11-09T03:09:58.710Z,33.11
2022-11-09T03:11:01.119Z,34.30
2022-11-09T03:12:03.796Z,34.80
2022-11-09T03:13:05.561Z,32.78
2022-11-09T03:14:08.022Z,33.11
2022-11-09T03:15:10.970Z,27.60
2022-11-09T03:16:14.715Z,21.80
2022-11-09T03:17:16.980Z,32.67
2022-11-09T03:18:18.960Z,31.70
2022-11-09T03:19:20.707Z,27.22
2022-11-09T03:20:25.065Z,36.10
2022-11-09T03:21:28.666Z,34.30
2022-11-09T03:22:30.627Z,34.60
2022-11-09T03:23:33.318Z,33.60
2022-11-09T03:24:35.632Z,32.10
2022-11-09T03:25:38.788Z,34.30
2022-11-09T03:26:40.768Z,31.50
2022-11-09T03:27:42.506Z,34.56
2022-11-09T03:28:45.125Z,32.50
2022-11-09T03:29:47.135Z,32.70
2022-11-09T03:30:50.171Z,31.50
2022-11-09T03:31:52.726Z,29.80
2022-11-09T03:33:03.277Z,32.60
2022-11-09T03:34:05.454Z,31.00
2022-11-09T03:35:09.590Z,34.40
2022-11-09T03:36:12.110Z,31.70
2022-11-09T03:37:14.485Z,31.40
2022-11-09T03:38:17.577Z,28.90
2022-11-09T03:39:19.592Z,31.10
2022-11-09T03:40:21.901Z,29.40
2022-11-09T03:41:25.056Z,33.10
2022-11-09T03:42:26.967Z,28.10
2022-11-09T03:43:29.740Z,32.80
2022-11-09T03:44:31.778Z,21.70
2022-11-09T03:45:34.189Z,33.60
2022-11-09T03:46:36.193Z,31.30
2022-11-09T03:47:45.515Z,31.33
2022-11-09T03:48:47.370Z,30.40
2022-11-09T03:49:49.106Z,33.00
2022-11-09T03:50:51.159Z,31.22
2022-11-09T03:51:53.151Z,29.50
2022-11-09T03:52:56.585Z,30.00
2022-11-09T03:53:59.461Z,32.50
2022-11-09T03:55:02.219Z,30.09
2022-11-09T03:56:05.715Z,30.45
2022-11-09T03:57:07.678Z,31.10
2022-11-09T03:58:11.220Z,29.11
2022-11-09T03:59:13.073Z,32.60
2022-11-09T04:00:18.156Z,30.00
2022-11-09T04:01:21.727Z,29.00
2022-11-09T04:02:23.915Z,29.22
2022-11-09T04:03:25.803Z,29.80
2022-11-09T04:04:27.565Z,26.78
2022-11-09T04:05:29.310Z,28.78
2022-11-09T04:06:31.292Z,28.67
2022-11-09T04:07:34.064Z,28.90
2022-11-09T04:08:36.245Z,13.45
2022-11-09T04:09:38.328Z,29.80
2022-11-09T04:10:40.352Z,29.30
2022-11-09T04:11:42.236Z,25.30
2022-11-09T04:12:44.471Z,28.22
2022-11-09T04:13:46.258Z,25.90
2022-11-09T04:14:47.994Z,27.22
2022-11-09T04:15:50.230Z,28.22
2022-11-09T04:16:52.138Z,30.50
2022-11-09T04:17:55.788Z,27.44
2022-11-09T04:18:57.789Z,28.30
2022-11-09T04:19:59.581Z,28.44
2022-11-09T04:21:02.514Z,26.44
2022-11-09T04:22:04.477Z,31.18
2022-11-09T04:23:09.296Z,29.90
2022-11-09T04:24:11.419Z,24.60
2022-11-09T04:25:13.343Z,31.70
2022-11-09T04:26:16.127Z,29.30
2022-11-09T04:27:17.826Z,27.40
2022-11-09T04:28:19.882Z,26.89
2022-11-09T04:29:21.631Z,23.00
2022-11-09T04:30:25.299Z,20.78
2022-11-09T04:31:28.519Z,26.00
2022-11-09T04:32:30.613Z,26.70
2022-11-09T04:33:32.361Z,28.78
2022-11-09T04:34:34.188Z,26.67
2022-11-09T04:35:36.334Z,27.89
2022-11-09T04:36:38.274Z,25.40
2022-11-09T04:37:40.015Z,11.00
2022-11-09T04:38:41.829Z,25.89
2022-11-09T04:39:44.731Z,26.00
2022-11-09T04:40:46.790Z,26.50
2022-11-09T04:41:48.953Z,24.11
2022-11-09T04:42:52.091Z,23.70
2022-11-09T04:43:54.055Z,25.91
2022-11-09T04:44:55.729Z,26.56
2022-11-09T04:46:01.852Z,25.11
2022-11-09T04:47:04.396Z,23.60
2022-11-09T04:48:07.522Z,28.10
2022-11-09T04:49:09.477Z,22.80
2022-11-09T04:50:12.593Z,25.20
2022-11-09T04:51:14.920Z,26.60
2022-11-09T04:52:17.871Z,26.40
2022-11-09T04:53:19.968Z,23.45
2022-11-09T04:54:22.155Z,27.40
2022-11-09T04:55:23.915Z,18.44
2022-11-09T04:56:25.868Z,28.56
2022-11-09T04:57:27.758Z,25.33
2022-11-09T04:58:31.134Z,27.33
2022-11-09T04:59:32.962Z,30.20
2022-11-09T05:00:35.929Z,29.11
2022-11-09T05:01:37.943Z,25.27
2022-11-09T05:02:39.849Z,25.90
2022-11-09T05:03:42.083Z,27.00
2022-11-09T05:04:44.187Z,27.40
2022-11-09T05:05:48.529Z,25.78
2022-11-09T05:06:49.953Z,24.10
2022-11-09T05:07:51.892Z,28.44
2022-11-09T05:08:54.775Z,25.11
2022-11-09T05:09:56.745Z,28.27
2022-11-09T05:10:58.671Z,28.80
2022-11-09T05:12:01.438Z,26.56
2022-11-09T05:13:06.363Z,30.70
2022-11-09T05:14:08.250Z,28.30
2022-11-09T05:15:10.782Z,30.00
2022-11-09T05:16:12.838Z,30.10
2022-11-09T05:17:14.754Z,33.30
2022-11-09T05:18:16.480Z,27.22
2022-11-09T05:19:18.252Z,30.00
2022-11-09T05:20:20.218Z,28.56
2022-11-09T05:21:22.208Z,31.00
2022-11-09T05:22:24.110Z,28.56
2022-11-09T05:23:26.267Z,28.00
2022-11-09T05:24:28.211Z,25.10
2022-11-09T05:25:30.218Z,28.10
2022-11-09T05:26:37.956Z,30.10
2022-11-09T05:27:39.838Z,26.70
2022-11-09T05:28:41.772Z,28.56
2022-11-09T05:29:43.560Z,28.22
2022-11-09T05:30:45.550Z,28.89
2022-11-09T05:31:52.050Z,26.60
2022-11-09T05:32:51.469Z,27.60
2022-11-09T05:33:53.934Z,29.10
2022-11-09T05:34:55.661Z,23.90
2022-11-09T05:35:57.627Z,28.22
2022-11-09T05:37:03.555Z,27.00
2022-11-09T05:38:04.115Z,20.10
2022-11-09T05:39:05.905Z,30.33
2022-11-09T05:40:09.508Z,26.40
2022-11-09T05:41:12.197Z,30.10
2022-11-09T05:42:14.215Z,21.30
2022-11-09T05:43:17.926Z,27.80
2022-11-09T05:44:20.450Z,26.90
2022-11-09T05:45:41.587Z,24.70
2022-11-09T05:46:26.259Z,24.10
2022-11-09T05:47:28.117Z,26.33
2022-11-09T05:48:30.181Z,30.33
2022-11-09T05:49:32.212Z,24.80
2022-11-09T05:50:34.693Z,29.89
2022-11-09T05:51:53.390Z,23.10
2022-11-09T05:53:00.155Z,28.78
2022-11-09T05:54:02.389Z,28.30
2022-11-09T05:55:05.519Z,29.60
2022-11-09T05:56:10.059Z,21.73
2022-11-09T05:57:12.349Z,24.90
2022-11-09T05:58:14.576Z,30.90
2022-11-09T05:59:16.135Z,25.20
2022-11-09T06:00:18.587Z,30.00
2022-11-09T06:01:20.219Z,25.30
2022-11-09T06:02:21.962Z,26.67
2022-11-09T06:03:24.233Z,28.70
2022-11-09T06:04:26.017Z,27.22
2022-11-09T06:05:27.851Z,27.44
2022-11-09T06:06:30.172Z,26.90
2022-11-09T06:07:32.904Z,27.90
2022-11-09T06:08:35.218Z,25.80
2022-11-09T06:09:37.142Z,21.50
2022-11-09T06:10:40.505Z,26.80
2022-11-09T06:11:42.540Z,20.20
2022-11-09T06:12:44.306Z,27.56
2022-11-09T06:13:46.101Z,26.33
2022-11-09T06:14:48.013Z,24.78
2022-11-09T06:15:57.847Z,26.78
2022-11-09T06:16:59.834Z,25.50
2022-11-09T06:18:02.591Z,22.78
2022-11-09T06:19:04.320Z,27.20
2022-11-09T06:20:07.427Z,24.50
2022-11-09T06:21:10.011Z,20.18
2022-11-09T06:22:14.038Z,19.00
2022-11-09T06:23:16.339Z,24.80
2022-11-09T06:24:18.688Z,23.50
2022-11-09T06:25:22.437Z,23.40
2022-11-09T06:26:24.374Z,22.50
2022-11-09T06:27:27.648Z,23.11
2022-11-09T06:28:29.795Z,25.80
2022-11-09T06:29:31.732Z,22.10
2022-11-09T06:30:33.971Z,23.44
2022-11-09T06:31:36.973Z,23.90
2022-11-09T06:32:38.882Z,23.80
2022-11-09T06:33:40.644Z,21.44
2022-11-09T06:34:43.465Z,22.89
2022-11-09T06:35:45.461Z,21.73
2022-11-09T06:36:47.501Z,25.80
2022-11-09T06:37:58.302Z,27.60
2022-11-09T06:39:01.390Z,23.20
2022-11-09T06:40:04.289Z,20.40
2022-11-09T06:41:06.347Z,21.73
2022-11-09T06:42:08.311Z,23.70
2022-11-09T06:43:12.796Z,25.50
2022-11-09T06:44:14.884Z,25.40
2022-11-09T06:45:17.382Z,28.44
2022-11-09T06:46:19.301Z,22.80
2022-11-09T06:47:21.266Z,23.30
2022-11-09T06:48:23.321Z,20.78
2022-11-09T06:49:25.247Z,23.60
2022-11-09T06:50:29.561Z,24.50
2022-11-09T06:51:31.407Z,26.70
2022-11-09T06:52:33.092Z,25.00
2022-11-09T06:53:35.123Z,25.56
2022-11-09T06:54:37.011Z,24.30
2022-11-09T06:55:39.641Z,24.56
2022-11-09T06:56:41.461Z,20.70
2022-11-09T06:57:43.722Z,21.00
2022-11-09T06:58:45.468Z,18.11
2022-11-09T06:59:47.324Z,23.56
2022-11-09T07:00:49.363Z,25.89
2022-11-09T07:01:51.387Z,21.11
2022-11-09T07:02:53.591Z,28.60
2022-11-09T07:03:55.581Z,27.30
2022-11-09T07:04:57.543Z,24.80
2022-11-09T07:06:03.086Z,29.44
2022-11-09T07:07:07.307Z,24.80
2022-11-09T07:08:10.168Z,28.00
2022-11-09T07:09:12.765Z,26.00
2022-11-09T07:10:15.657Z,24.27
2022-11-09T07:11:17.473Z,28.10
2022-11-09T07:12:19.138Z,19.00
2022-11-09T07:13:22.235Z,30.11
2022-11-09T07:14:24.371Z,27.90
2022-11-09T07:15:26.230Z,26.22
2022-11-09T07:16:29.583Z,29.89
2022-11-09T07:17:32.758Z,32.20
2022-11-09T07:18:35.478Z,38.60
2022-11-09T07:19:37.880Z,39.60
2022-11-09T07:20:39.883Z,37.00
2022-11-09T07:21:41.803Z,43.20
2022-11-09T07:22:43.794Z,44.00
2022-11-09T07:23:47.656Z,39.00
2022-11-09T07:24:49.868Z,31.20
2022-11-09T07:25:51.864Z,31.40
2022-11-09T07:26:54.210Z,32.20
2022-11-09T07:27:59.678Z,31.90
2022-11-09T07:29:01.583Z,34.00
2022-11-09T07:30:06.881Z,38.00
2022-11-09T07:31:09.355Z,33.00
2022-11-09T07:32:11.200Z,28.30
2022-11-09T07:33:15.851Z,25.00
2022-11-09T07:34:17.872Z,21.20
2022-11-09T07:35:19.635Z,20.00
2022-11-09T07:36:21.931Z,25.33
2022-11-09T07:37:24.057Z,24.40
2022-11-09T07:38:27.811Z,28.67
2022-11-09T07:39:29.873Z,26.70
2022-11-09T07:40:31.978Z,19.50
2022-11-09T07:41:34.957Z,22.67
2022-11-09T07:42:37.113Z,11.80
2022-11-09T07:43:39.922Z,21.60
2022-11-09T07:44:42.112Z,23.00
2022-11-09T07:45:43.793Z,22.90
2022-11-09T07:46:51.392Z,19.78
2022-11-09T07:49:08.733Z,24.80
2022-11-09T07:50:10.573Z,22.56
2022-11-09T07:51:12.603Z,20.44
2022-11-09T07:52:14.534Z,20.40
2022-11-09T07:53:16.675Z,20.56
2022-11-09T07:54:19.055Z,24.40
2022-11-09T07:55:21.189Z,20.50
2022-11-09T07:56:23.086Z,19.70
2022-11-09T07:57:24.914Z,22.22
2022-11-09T07:58:26.880Z,19.00
2022-11-09T07:59:28.531Z,17.00
2022-11-09T08:00:31.788Z,11.11
2022-11-09T08:01:33.821Z,17.10
2022-11-09T08:02:36.222Z,23.11
2022-11-09T08:03:38.520Z,19.70
2022-11-09T08:04:40.246Z,19.80
2022-11-09T08:05:42.112Z,19.67
2022-11-09T08:06:44.268Z,17.11
2022-11-09T08:07:46.374Z,18.60
2022-11-09T08:08:48.868Z,20.70
2022-11-09T08:09:50.858Z,12.80
2022-11-09T08:10:53.832Z,19.50
2022-11-09T08:11:55.597Z,18.45
2022-11-09T08:13:00.070Z,16.00
2022-11-09T08:14:02.016Z,18.10
2022-11-09T08:15:05.452Z,21.00
2022-11-09T08:16:08.836Z,18.50
2022-11-09T08:17:10.964Z,19.00
2022-11-09T08:18:19.908Z,17.60
2022-11-09T08:19:22.448Z,18.10
2022-11-09T08:20:24.251Z,14.30
2022-11-09T08:21:26.116Z,10.67
2022-11-09T08:22:28.426Z,13.20
2022-11-09T08:23:31.347Z,13.10
2022-11-09T08:24:33.324Z,8.36
2022-11-09T08:25:35.764Z,12.22
2022-11-09T08:26:37.660Z,11.50
2022-11-09T08:27:40.390Z,15.33
2022-11-09T08:28:42.296Z,15.70
2022-11-09T08:29:44.792Z,15.00
2022-11-09T08:30:56.440Z,13.00
2022-11-09T08:31:58.996Z,14.40
2022-11-09T08:33:02.602Z,15.50
2022-11-09T08:34:04.886Z,12.80
2022-11-09T08:35:09.254Z,10.40
2022-11-09T08:36:15.296Z,15.50
2022-11-09T08:37:17.371Z,15.40
2022-11-09T08:38:19.526Z,16.00
2022-11-09T08:39:23.431Z,17.30
2022-11-09T08:40:25.865Z,17.00
2022-11-09T08:41:28.509Z,10.10
2022-11-09T08:42:30.390Z,16.90
2022-11-09T08:43:32.383Z,15.20
2022-11-09T08:44:34.186Z,16.40
2022-11-09T08:45:39.010Z,12.56
2022-11-09T08:46:41.587Z,13.90
2022-11-09T08:47:44.905Z,15.36
2022-11-09T08:48:47.507Z,13.80
2022-11-09T08:49:49.499Z,13.00
2022-11-09T08:50:54.462Z,13.78
2022-11-09T08:51:56.403Z,12.70
2022-11-09T08:53:02.540Z,13.56
2022-11-09T08:54:04.595Z,12.80
2022-11-09T08:55:07.562Z,14.30
2022-11-09T08:56:10.038Z,17.00
2022-11-09T08:57:12.698Z,14.00
2022-11-09T08:58:14.983Z,14.90
2022-11-09T08:59:16.818Z,13.70
2022-11-09T09:00:20.994Z,13.20
2022-11-09T09:01:23.022Z,12.90
2022-11-09T09:02:25.179Z,12.10
2022-11-09T09:03:27.080Z,13.60
2022-11-09T09:04:29.019Z,13.56
2022-11-09T09:05:31.824Z,13.00
2022-11-09T09:06:33.970Z,13.36
2022-11-09T09:07:36.337Z,14.30
2022-11-09T09:08:38.130Z,16.00
2022-11-09T09:09:40.061Z,11.56
2022-11-09T09:10:43.054Z,13.50
2022-11-09T09:11:45.187Z,11.20
2022-11-09T09:12:48.125Z,11.40
2022-11-09T09:13:50.273Z,10.50
2022-11-09T09:14:53.255Z,12.40
2022-11-09T09:15:56.218Z,12.80
2022-11-09T09:16:58.221Z,11.73
2022-11-09T09:18:01.566Z,10.78
2022-11-09T09:19:04.166Z,10.60
2022-11-09T09:20:06.919Z,10.10
2022-11-09T09:21:11.229Z,10.60
2022-11-09T09:22:13.804Z,12.50
2022-11-09T09:23:16.437Z,9.90
2022-11-09T09:24:18.784Z,9.30
2022-11-09T09:25:20.561Z,8.80
2022-11-09T09:26:22.753Z,10.30
2022-11-09T09:27:25.678Z,10.90
2022-11-09T09:28:27.722Z,11.80
2022-11-09T09:29:29.729Z,7.90
2022-11-09T09:30:31.448Z,11.11
2022-11-09T09:31:33.315Z,11.00
2022-11-09T09:32:35.394Z,11.56
2022-11-09T09:33:38.226Z,10.60
2022-11-09T09:34:40.372Z,10.30
2022-11-09T09:35:43.242Z,9.60
2022-11-09T09:36:48.176Z,9.55
2022-11-09T09:37:50.083Z,9.10
2022-11-09T09:38:54.440Z,6.44
2022-11-09T09:39:56.381Z,10.90
2022-11-09T09:42:17.688Z,8.60
2022-11-09T09:43:29.438Z,10.00
2022-11-09T09:44:41.072Z,7.60
2022-11-09T09:45:46.576Z,11.50
2022-11-09T09:47:13.643Z,11.60
2022-11-09T09:48:41.892Z,10.50
2022-11-09T09:49:48.622Z,9.60
2022-11-09T09:50:53.421Z,7.60
2022-11-09T09:53:38.886Z,9.00
2022-11-09T09:54:45.859Z,8.40
2022-11-09T09:57:01.628Z,7.00
2022-11-09T09:58:24.035Z,6.55
2022-11-09T10:04:41.225Z,7.00
2022-11-09T10:05:59.317Z,6.50
2022-11-09T10:07:24.512Z,7.80
2022-11-09T10:08:34.184Z,4.10
2022-11-09T10:09:43.731Z,8.20
2022-11-09T14:17:19.816Z,9.60
2022-11-09T14:20:47.719Z,6.70
2022-11-09T14:25:01.494Z,13.60
2022-11-09T14:26:24.468Z,16.10
2022-11-09T14:27:49.743Z,15.50
2022-11-09T14:29:14.596Z,14.80
2022-11-09T14:30:38.939Z,17.10
2022-11-09T14:32:18.127Z,16.90
2022-11-09T14:33:38.715Z,14.40
2022-11-09T14:35:24.078Z,14.20
2022-11-09T14:36:47.141Z,15.90
2022-11-09T14:38:20.577Z,15.50
2022-11-09T14:39:41.235Z,12.80
2022-11-09T14:41:03.582Z,15.80
2022-11-09T14:42:23.828Z,17.50
2022-11-09T14:43:44.884Z,15.80
2022-11-09T14:45:10.131Z,16.40
2022-11-09T14:46:30.989Z,20.30
2022-11-09T14:47:55.938Z,15.60
2022-11-09T14:49:16.631Z,16.40
2022-11-09T14:50:37.654Z,17.60
2022-11-09T14:51:59.055Z,18.40
2022-11-09T14:53:28.659Z,15.10
2022-11-09T14:54:50.779Z,17.80
2022-11-09T14:56:15.394Z,16.70
2022-11-09T14:57:38.303Z,18.20
2022-11-09T14:59:02.797Z,16.80
2022-11-09T15:00:29.773Z,19.00
2022-11-09T15:01:59.782Z,19.20
2022-11-09T15:03:29.491Z,17.90
2022-11-09T15:04:56.792Z,15.40
2022-11-09T15:06:17.527Z,16.60
2022-11-09T15:07:38.682Z,6.10
2022-11-09T15:09:05.822Z,17.90
2022-11-09T15:10:27.782Z,15.20
2022-11-09T15:11:49.146Z,18.20
2022-11-09T15:13:09.943Z,19.00
2022-11-09T15:14:33.536Z,17.30
2022-11-09T15:15:56.084Z,16.00
2022-11-09T15:17:26.144Z,16.20
2022-11-09T15:18:48.365Z,15.50
2022-11-09T15:20:12.613Z,17.50
2022-11-09T15:21:36.464Z,14.10
2022-11-09T15:23:06.540Z,15.90
2022-11-09T15:24:28.902Z,15.70
2022-11-09T15:25:54.857Z,17.80
2022-11-09T15:27:33.669Z,14.90
2022-11-09T15:28:54.334Z,18.80
2022-11-09T15:30:46.097Z,15.20
2022-11-09T15:32:12.906Z,18.30
2022-11-09T15:33:46.921Z,22.20
2022-11-09T15:35:14.126Z,16.40
2022-11-09T15:36:38.950Z,14.70
2022-11-09T15:37:59.470Z,23.00
2022-11-09T15:39:21.134Z,22.10
2022-11-09T15:40:42.145Z,16.80
2022-11-09T15:42:03.343Z,23.80
2022-11-09T15:43:24.861Z,15.00
2022-11-09T15:44:46.405Z,22.50
2022-11-09T15:46:07.168Z,21.30
2022-11-09T15:47:33.944Z,14.80
2022-11-09T15:48:58.405Z,23.20
2022-11-09T15:50:23.057Z,24.10
2022-11-09T15:51:44.308Z,22.50
2022-11-09T15:53:04.647Z,21.80
2022-11-09T15:54:26.236Z,23.20
2022-11-09T15:55:48.207Z,19.40
2022-11-09T15:57:12.353Z,20.20
2022-11-09T15:58:33.043Z,13.00
2022-11-09T15:59:53.544Z,23.70
2022-11-09T16:01:15.733Z,21.60
2022-11-09T16:02:36.157Z,25.00
2022-11-09T16:03:56.880Z,27.30
2022-11-09T16:05:17.377Z,29.30
2022-11-09T16:06:41.323Z,28.10
2022-11-09T16:08:00.889Z,28.50
2022-11-09T16:09:22.205Z,26.60
2022-11-09T16:10:43.917Z,25.40
2022-11-09T16:12:05.129Z,30.70
2022-11-09T16:13:26.115Z,30.80
2022-11-09T16:14:46.597Z,29.60
2022-11-09T16:16:10.027Z,28.20
2022-11-09T16:17:30.871Z,30.00
2022-11-09T16:18:52.461Z,31.30
2022-11-09T16:20:13.336Z,30.50
2022-11-09T16:21:34.773Z,33.10
2022-11-09T16:22:56.885Z,32.20
2022-11-09T16:24:18.301Z,30.10
2022-11-09T16:25:39.190Z,31.10
2022-11-09T16:27:00.230Z,31.10
2022-11-09T16:28:20.900Z,31.60
2022-11-09T16:29:42.394Z,35.20
2022-11-09T16:31:04.191Z,32.80
2022-11-09T16:32:24.980Z,30.90
2022-11-09T16:33:45.358Z,32.40
2022-11-09T16:35:26.229Z,29.50
2022-11-09T16:36:33.564Z,29.80
2022-11-09T16:37:57.575Z,31.70
2022-11-09T16:39:18.918Z,28.90
2022-11-09T16:40:41.820Z,31.50
2022-11-09T16:42:06.129Z,30.20
2022-11-09T16:43:31.503Z,30.40
2022-11-09T16:44:52.565Z,31.20
2022-11-09T16:46:18.034Z,31.40
2022-11-09T16:47:42.216Z,31.50
2022-11-09T16:49:03.897Z,32.50
2022-11-09T16:50:24.315Z,33.90
2022-11-09T16:51:45.814Z,30.10
2022-11-09T16:53:08.755Z,30.80
2022-11-09T16:54:31.632Z,30.00
2022-11-09T16:55:53.297Z,32.40
2022-11-09T16:57:15.339Z,32.10
2022-11-09T16:58:37.663Z,32.70
2022-11-09T17:00:00.205Z,34.70
2022-11-09T17:01:23.586Z,32.70
2022-11-09T17:02:43.186Z,31.10
2022-11-09T17:04:04.353Z,32.10
2022-11-09T17:05:24.878Z,31.80
2022-11-09T17:06:45.400Z,31.30
2022-11-09T17:08:07.338Z,34.10
2022-11-09T17:09:27.472Z,30.70
2022-11-09T17:10:47.858Z,31.30
2022-11-09T17:12:09.008Z,31.10
2022-11-09T17:13:33.032Z,31.90
2022-11-09T17:14:54.522Z,32.50
2022-11-09T17:16:17.445Z,31.90
2022-11-09T17:17:40.102Z,33.00
2022-11-09T17:19:01.853Z,33.20
2022-11-09T17:20:24.092Z,33.90
2022-11-09T17:21:47.397Z,33.10
2022-11-09T17:23:09.953Z,32.00
2022-11-09T17:24:33.004Z,34.70
2022-11-09T17:25:59.461Z,29.80
2022-11-09T17:27:19.774Z,32.10
2022-11-09T17:28:43.159Z,32.60
2022-11-09T17:30:06.502Z,31.10
2022-11-09T17:31:26.893Z,33.70
2022-11-09T17:32:49.339Z,31.70
2022-11-09T17:34:11.316Z,32.30
2022-11-09T17:35:33.633Z,33.30
2022-11-09T17:37:04.127Z,33.00
2022-11-09T17:38:20.030Z,33.50
2022-11-09T17:39:40.711Z,31.60
2022-11-09T17:41:10.988Z,32.10
2022-11-09T17:42:33.715Z,34.70
2022-11-09T17:43:55.185Z,30.80
2022-11-09T17:45:15.661Z,32.40
2022-11-09T17:46:37.771Z,32.10
2022-11-09T17:47:58.213Z,34.20
2022-11-09T17:49:19.278Z,34.00
2022-11-09T17:50:40.564Z,33.50
2022-11-09T17:52:01.559Z,32.50
2022-11-09T17:53:22.274Z,32.30
2022-11-09T17:54:42.884Z,32.50
2022-11-09T17:56:05.403Z,32.80
2022-11-09T17:57:26.615Z,32.20
2022-11-09T17:58:47.075Z,31.20
2022-11-09T18:00:09.284Z,34.10
2022-11-09T18:01:30.331Z,32.20
2022-11-09T18:02:59.221Z,31.10
2022-11-09T18:04:20.082Z,29.50
2022-11-09T18:05:42.761Z,27.80
2022-11-09T18:07:03.867Z,29.70
2022-11-09T18:08:25.245Z,31.70
2022-11-09T18:09:45.754Z,36.50
2022-11-09T18:11:06.347Z,33.20
2022-11-09T18:12:30.178Z,34.30
2022-11-09T18:13:51.148Z,33.60
2022-11-09T18:15:11.559Z,33.80
2022-11-09T18:16:31.991Z,34.50
2022-11-09T18:17:54.488Z,34.00
2022-11-09T18:19:15.170Z,36.30
2022-11-09T18:20:38.102Z,32.40
2022-11-09T18:22:02.653Z,29.40
2022-11-09T18:23:21.580Z,33.20
2022-11-09T18:24:42.126Z,33.60
2022-11-09T18:26:04.254Z,34.20
2022-11-09T18:27:30.319Z,35.70
2022-11-09T18:28:49.089Z,34.50
2022-11-09T18:30:10.884Z,33.80
2022-11-09T18:31:31.580Z,32.60
2022-11-09T21:24:31.139Z,53.10
2022-11-09T21:25:51.509Z,51.40
2022-11-09T21:27:13.327Z,52.60
2022-11-09T21:28:33.766Z,50.80
2022-11-09T21:29:55.673Z,50.10
2022-11-09T21:31:16.341Z,48.90
2022-11-09T21:32:38.375Z,42.60
2022-11-09T21:33:58.789Z,40.90
2022-11-09T21:35:19.771Z,43.80
2022-11-09T21:36:42.597Z,42.80
2022-11-09T21:38:03.363Z,42.20
2022-11-09T21:39:23.729Z,38.70
2022-11-09T21:40:44.344Z,39.00
2022-11-09T21:42:05.303Z,38.40
2022-11-09T21:43:26.168Z,37.80
2022-11-09T21:44:46.813Z,38.60
2022-11-09T21:46:07.642Z,39.80
2022-11-09T21:47:27.770Z,40.40
2022-11-09T21:48:49.214Z,40.00
2022-11-09T21:50:12.796Z,41.10
2022-11-09T21:51:34.530Z,39.00
2022-11-09T21:52:55.886Z,34.30
2022-11-09T21:54:16.759Z,37.20
2022-11-09T21:55:37.052Z,36.80
2022-11-09T21:56:57.782Z,39.30
2022-11-09T21:58:18.133Z,40.30
2022-11-09T21:59:38.928Z,42.30